Crystal Bay, MN (55323)

3:49 AM CDT on August 31, 2015 (GMT -0500)
Carman Bay | | Change Station
CLOSE
Current Station
Personal Weather Station
Location: Navarre, MN
Elevation: 935 ft
Nearby Weather Stations

Elev 935 ft 44.93 °N, 93.61 °W | Updated 3 seconds ago

Partly Cloudy
Partly Cloudy
66.9 °F
Feels Like 66.9 °F
N
6.9
Wind Variable Wind from SSW
Gusts 6.9 mph

Today
High -- | Low -- °F
--% Chance of Precip.
Yesterday
High -- | Low -- °F
Precip. -- in
6:34 AM 7:53 PM
Waning Gibbous, 96% visible
Pressure 29.91 in
Visibility 7.0 miles
Clouds Clear
Dew Point 64 °F
Humidity 90%
Rainfall 0.00 in
Snow Depth Not available.
UV 0 out of 12
Pollen 9.20 out of 12
Air Quality Not available.
Flu Activity Not available.
METAR KFCM 310753Z AUTO 18008KT 7SM CLR 19/18 A2992 RMK AO2 SLP127 T01890178
Pressure 29.91 in
Visibility 7.0 miles
Clouds Clear
Dew Point 64 °F
Humidity 90%
Rainfall 0.00 in
Snow Depth Not available.
UV 0 out of 12
Pollen 9.20 out of 12
Air Quality Not available.
Flu Activity Not available.
METAR KFCM 310753Z AUTO 18008KT 7SM CLR 19/18 A2992 RMK AO2 SLP127 T01890178

10-Day Weather Forecast

×

Almanac

Astronomy

Aug. 31, 2015 Rise Set
Actual Time
Civil Twilight
Nautical Twilight
Astronomical Twilight
Moon
Length of Visible Light
Length of Day
Tomorrow will be .
, % of the Moon is Illuminated

Today's Extremes

State Highs State Lows

Community

WunderPhotos

Upload Photos

1,851,220 photos uploaded!

WunderBlogs® & News

Nearby

Air Quality

  Air Quality AQ Index Pollutant
Not available.

Snow Depth

Station Depth Elevation

Earthquake Activity

City Distance Mag. Time & Date
Minimum magnitude displayed is 2.5.

Coastal Water Temperatures

Place Temperature

Stations

Nearby Weather Stations

Station Location Temp. Windchill Dew Point Humidity Wind Precip. Elev Updated Type